sensor_id;sensor_type;location;lat;lon;timestamp;temperature;humidity
30865;DHT22;17574;49.418;11.038;2023-04-03T00:00:35;4.90;7.10
30865;DHT22;17574;49.418;11.038;2023-04-03T00:03:02;4.90;7.90
30865;DHT22;17574;49.418;11.038;2023-04-03T00:05:29;5.00;8.90
30865;DHT22;17574;49.418;11.038;2023-04-03T00:07:56;5.00;7.20
30865;DHT22;17574;49.418;11.038;2023-04-03T00:10:22;5.10;7.80
30865;DHT22;17574;49.418;11.038;2023-04-03T00:12:49;5.00;8.90
30865;DHT22;17574;49.418;11.038;2023-04-03T00:15:16;5.00;8.90
30865;DHT22;17574;49.418;11.038;2023-04-03T00:17:43;5.00;10.50
30865;DHT22;17574;49.418;11.038;2023-04-03T00:20:09;5.10;11.50
30865;DHT22;17574;49.418;11.038;2023-04-03T00:22:36;5.00;10.10
30865;DHT22;17574;49.418;11.038;2023-04-03T00:25:03;5.10;9.20
30865;DHT22;17574;49.418;11.038;2023-04-03T00:27:29;5.10;10.00
30865;DHT22;17574;49.418;11.038;2023-04-03T00:29:56;5.10;10.90
30865;DHT22;17574;49.418;11.038;2023-04-03T00:32:23;5.10;9.50
30865;DHT22;17574;49.418;11.038;2023-04-03T00:34:49;5.10;7.20
30865;DHT22;17574;49.418;11.038;2023-04-03T00:37:16;5.10;7.20
30865;DHT22;17574;49.418;11.038;2023-04-03T00:39:42;4.50;6.80
30865;DHT22;17574;49.418;11.038;2023-04-03T00:42:09;5.00;8.80
30865;DHT22;17574;49.418;11.038;2023-04-03T00:47:03;4.90;9.00
30865;DHT22;17574;49.418;11.038;2023-04-03T00:49:31;5.00;9.50
30865;DHT22;17574;49.418;11.038;2023-04-03T00:51:58;4.90;9.30
30865;DHT22;17574;49.418;11.038;2023-04-03T00:54:25;5.00;7.20
30865;DHT22;17574;49.418;11.038;2023-04-03T00:56:51;4.90;8.10
30865;DHT22;17574;49.418;11.038;2023-04-03T00:59:21;4.90;9.40
30865;DHT22;17574;49.418;11.038;2023-04-03T01:01:49;4.90;8.80
30865;DHT22;17574;49.418;11.038;2023-04-03T01:04:26;4.90;8.30
30865;DHT22;17574;49.418;11.038;2023-04-03T01:06:55;4.90;7.50
30865;DHT22;17574;49.418;11.038;2023-04-03T01:09:22;4.90;9.90
30865;DHT22;17574;49.418;11.038;2023-04-03T01:11:49;4.90;8.10
30865;DHT22;17574;49.418;11.038;2023-04-03T01:14:15;4.80;9.70
30865;DHT22;17574;49.418;11.038;2023-04-03T01:16:42;4.80;10.20
30865;DHT22;17574;49.418;11.038;2023-04-03T01:19:10;4.80;8.70
30865;DHT22;17574;49.418;11.038;2023-04-03T01:21:47;4.80;8.10
30865;DHT22;17574;49.418;11.038;2023-04-03T01:24:32;4.90;7.60
30865;DHT22;17574;49.418;11.038;2023-04-03T01:27:00;4.90;8.20
30865;DHT22;17574;49.418;11.038;2023-04-03T01:29:27;4.80;7.00
30865;DHT22;17574;49.418;11.038;2023-04-03T01:31:55;4.90;8.00
30865;DHT22;17574;49.418;11.038;2023-04-03T01:34:22;4.80;8.90
30865;DHT22;17574;49.418;11.038;2023-04-03T01:36:49;4.70;9.70
30865;DHT22;17574;49.418;11.038;2023-04-03T01:39:17;4.70;6.90
30865;DHT22;17574;49.418;11.038;2023-04-03T01:41:43;4.80;7.00
30865;DHT22;17574;49.418;11.038;2023-04-03T01:44:10;4.70;6.90
30865;DHT22;17574;49.418;11.038;2023-04-03T01:46:37;4.70;6.90
30865;DHT22;17574;49.418;11.038;2023-04-03T01:49:04;4.60;7.70
30865;DHT22;17574;49.418;11.038;2023-04-03T01:51:31;4.60;9.60
30865;DHT22;17574;49.418;11.038;2023-04-03T01:53:57;4.80;8.80
30865;DHT22;17574;49.418;11.038;2023-04-03T01:56:24;4.60;10.10
30865;DHT22;17574;49.418;11.038;2023-04-03T01:58:51;4.60;8.00
30865;DHT22;17574;49.418;11.038;2023-04-03T02:01:18;4.60;8.50
30865;DHT22;17574;49.418;11.038;2023-04-03T02:03:44;4.70;7.90
30865;DHT22;17574;49.418;11.038;2023-04-03T02:06:11;4.80;9.30
30865;DHT22;17574;49.418;11.038;2023-04-03T02:08:38;4.50;9.70
30865;DHT22;17574;49.418;11.038;2023-04-03T02:11:05;4.50;10.90
30865;DHT22;17574;49.418;11.038;2023-04-03T02:13:31;4.50;9.90
30865;DHT22;17574;49.418;11.038;2023-04-03T02:15:58;4.50;10.90
30865;DHT22;17574;49.418;11.038;2023-04-03T02:18:25;4.50;11.50
30865;DHT22;17574;49.418;11.038;2023-04-03T02:20:52;4.50;11.50
30865;DHT22;17574;49.418;11.038;2023-04-03T02:23:18;4.50;11.50
30865;DHT22;17574;49.418;11.038;2023-04-03T02:25:45;4.50;10.40
30865;DHT22;17574;49.418;11.038;2023-04-03T02:28:12;4.50;11.10
30865;DHT22;17574;49.418;11.038;2023-04-03T02:30:38;4.50;11.80
30865;DHT22;17574;49.418;11.038;2023-04-03T02:33:05;4.40;11.40
30865;DHT22;17574;49.418;11.038;2023-04-03T02:35:32;4.40;11.60
30865;DHT22;17574;49.418;11.038;2023-04-03T02:37:58;4.40;11.40
30865;DHT22;17574;49.418;11.038;2023-04-03T02:40:25;4.30;12.90
30865;DHT22;17574;49.418;11.038;2023-04-03T02:42:52;4.30;12.50
30865;DHT22;17574;49.418;11.038;2023-04-03T02:45:18;4.40;13.00
30865;DHT22;17574;49.418;11.038;2023-04-03T02:47:45;4.20;14.60
30865;DHT22;17574;49.418;11.038;2023-04-03T02:50:11;4.20;15.40
30865;DHT22;17574;49.418;11.038;2023-04-03T02:52:38;4.20;14.40
30865;DHT22;17574;49.418;11.038;2023-04-03T02:55:05;4.20;13.50
30865;DHT22;17574;49.418;11.038;2023-04-03T02:57:32;4.20;15.90
30865;DHT22;17574;49.418;11.038;2023-04-03T02:59:58;4.10;15.80
30865;DHT22;17574;49.418;11.038;2023-04-03T03:02:25;4.10;15.80
30865;DHT22;17574;49.418;11.038;2023-04-03T03:04:51;4.00;16.00
30865;DHT22;17574;49.418;11.038;2023-04-03T03:07:18;4.00;18.00
30865;DHT22;17574;49.418;11.038;2023-04-03T03:09:45;4.10;18.10
30865;DHT22;17574;49.418;11.038;2023-04-03T03:12:11;4.00;18.40
30865;DHT22;17574;49.418;11.038;2023-04-03T03:14:38;4.00;18.70
30865;DHT22;17574;49.418;11.038;2023-04-03T03:17:04;4.00;19.00
30865;DHT22;17574;49.418;11.038;2023-04-03T03:19:31;4.00;19.40
30865;DHT22;17574;49.418;11.038;2023-04-03T03:21:58;4.00;18.60
30865;DHT22;17574;49.418;11.038;2023-04-03T03:24:24;4.00;20.30
30865;DHT22;17574;49.418;11.038;2023-04-03T03:26:51;3.90;20.30
30865;DHT22;17574;49.418;11.038;2023-04-03T03:29:18;3.90;21.50
30865;DHT22;17574;49.418;11.038;2023-04-03T03:31:44;3.90;24.40
30865;DHT22;17574;49.418;11.038;2023-04-03T03:34:12;3.90;22.90
30865;DHT22;17574;49.418;11.038;2023-04-03T03:36:39;3.90;24.60
30865;DHT22;17574;49.418;11.038;2023-04-03T03:39:05;3.90;24.70
30865;DHT22;17574;49.418;11.038;2023-04-03T03:41:32;3.80;24.60
30865;DHT22;17574;49.418;11.038;2023-04-03T03:43:59;3.80;24.70
30865;DHT22;17574;49.418;11.038;2023-04-03T03:46:26;3.80;24.70
30865;DHT22;17574;49.418;11.038;2023-04-03T03:48:52;3.80;25.90
30865;DHT22;17574;49.418;11.038;2023-04-03T03:51:19;3.80;26.00
30865;DHT22;17574;49.418;11.038;2023-04-03T03:53:45;3.80;26.40
30865;DHT22;17574;49.418;11.038;2023-04-03T03:56:12;3.80;25.50
30865;DHT22;17574;49.418;11.038;2023-04-03T03:58:39;3.70;27.30
30865;DHT22;17574;49.418;11.038;2023-04-03T04:01:06;3.70;29.20
30865;DHT22;17574;49.418;11.038;2023-04-03T04:03:33;3.70;28.50
30865;DHT22;17574;49.418;11.038;2023-04-03T04:05:59;3.70;28.90
30865;DHT22;17574;49.418;11.038;2023-04-03T04:08:26;3.70;28.90
30865;DHT22;17574;49.418;11.038;2023-04-03T04:10:53;3.70;29.40
30865;DHT22;17574;49.418;11.038;2023-04-03T04:13:19;3.80;29.50
30865;DHT22;17574;49.418;11.038;2023-04-03T04:15:46;3.80;29.70
30865;DHT22;17574;49.418;11.038;2023-04-03T04:18:13;3.80;29.40
30865;DHT22;17574;49.418;11.038;2023-04-03T04:20:39;3.80;29.80
30865;DHT22;17574;49.418;11.038;2023-04-03T04:23:06;3.80;29.00
30865;DHT22;17574;49.418;11.038;2023-04-03T04:25:33;3.80;30.00
30865;DHT22;17574;49.418;11.038;2023-04-03T04:28:00;3.70;32.80
30865;DHT22;17574;49.418;11.038;2023-04-03T04:30:26;3.70;34.00
30865;DHT22;17574;49.418;11.038;2023-04-03T04:32:53;3.80;33.70
30865;DHT22;17574;49.418;11.038;2023-04-03T04:35:20;3.80;34.20
30865;DHT22;17574;49.418;11.038;2023-04-03T04:37:47;3.80;32.50
30865;DHT22;17574;49.418;11.038;2023-04-03T04:40:14;3.80;32.50
30865;DHT22;17574;49.418;11.038;2023-04-03T04:42:41;3.80;34.20
30865;DHT22;17574;49.418;11.038;2023-04-03T04:45:07;3.80;31.90
30865;DHT22;17574;49.418;11.038;2023-04-03T04:47:34;3.80;32.50
30865;DHT22;17574;49.418;11.038;2023-04-03T04:50:00;3.80;34.20
30865;DHT22;17574;49.418;11.038;2023-04-03T04:52:27;3.80;34.20
30865;DHT22;17574;49.418;11.038;2023-04-03T04:54:54;3.70;32.60
30865;DHT22;17574;49.418;11.038;2023-04-03T04:57:20;3.70;34.10
30865;DHT22;17574;49.418;11.038;2023-04-03T04:59:47;3.70;34.10
30865;DHT22;17574;49.418;11.038;2023-04-03T05:02:14;3.70;34.10
30865;DHT22;17574;49.418;11.038;2023-04-03T05:04:40;3.70;34.10
30865;DHT22;17574;49.418;11.038;2023-04-03T05:07:07;3.70;34.50
30865;DHT22;17574;49.418;11.038;2023-04-03T05:09:34;3.70;34.10
30865;DHT22;17574;49.418;11.038;2023-04-03T05:12:01;3.70;34.10
30865;DHT22;17574;49.418;11.038;2023-04-03T05:14:29;3.70;34.10
30865;DHT22;17574;49.418;11.038;2023-04-03T05:16:56;3.70;34.10
30865;DHT22;17574;49.418;11.038;2023-04-03T05:19:23;3.70;35.70
30865;DHT22;17574;49.418;11.038;2023-04-03T05:21:50;3.70;34.80
30865;DHT22;17574;49.418;11.038;2023-04-03T05:24:17;3.70;34.10
30865;DHT22;17574;49.418;11.038;2023-04-03T05:26:44;3.70;36.80
30865;DHT22;17574;49.418;11.038;2023-04-03T05:29:10;3.70;34.80
30865;DHT22;17574;49.418;11.038;2023-04-03T05:31:37;3.70;35.80
30865;DHT22;17574;49.418;11.038;2023-04-03T05:34:04;3.70;34.60
30865;DHT22;17574;49.418;11.038;2023-04-03T05:36:30;3.80;34.20
30865;DHT22;17574;49.418;11.038;2023-04-03T05:38:57;3.70;34.10
30865;DHT22;17574;49.418;11.038;2023-04-03T05:41:24;3.70;34.10
30865;DHT22;17574;49.418;11.038;2023-04-03T05:43:51;3.70;34.10
30865;DHT22;17574;49.418;11.038;2023-04-03T05:46:18;3.70;34.10
30865;DHT22;17574;49.418;11.038;2023-04-03T05:48:45;3.70;35.20
30865;DHT22;17574;49.418;11.038;2023-04-03T05:51:16;3.70;34.10
30865;DHT22;17574;49.418;11.038;2023-04-03T05:53:43;3.80;34.20
30865;DHT22;17574;49.418;11.038;2023-04-03T05:56:11;3.80;34.20
30865;DHT22;17574;49.418;11.038;2023-04-03T05:58:37;3.90;34.30
30865;DHT22;17574;49.418;11.038;2023-04-03T06:01:04;4.00;34.40
30865;DHT22;17574;49.418;11.038;2023-04-03T06:03:31;4.00;34.40
30865;DHT22;17574;49.418;11.038;2023-04-03T06:05:58;4.00;33.70
30865;DHT22;17574;49.418;11.038;2023-04-03T06:08:25;4.10;31.20
30865;DHT22;17574;49.418;11.038;2023-04-03T06:10:52;4.20;30.70
30865;DHT22;17574;49.418;11.038;2023-04-03T06:13:19;4.20;30.10
30865;DHT22;17574;49.418;11.038;2023-04-03T06:15:45;4.10;29.80
30865;DHT22;17574;49.418;11.038;2023-04-03T06:18:13;4.20;28.70
30865;DHT22;17574;49.418;11.038;2023-04-03T06:20:39;4.30;28.20
30865;DHT22;17574;49.418;11.038;2023-04-03T06:23:06;4.20;28.30
30865;DHT22;17574;49.418;11.038;2023-04-03T06:25:34;4.30;28.20
30865;DHT22;17574;49.418;11.038;2023-04-03T06:28:00;4.30;28.20
30865;DHT22;17574;49.418;11.038;2023-04-03T06:30:27;4.40;29.60
30865;DHT22;17574;49.418;11.038;2023-04-03T06:32:54;4.40;27.20
30865;DHT22;17574;49.418;11.038;2023-04-03T06:35:22;4.40;26.30
30865;DHT22;17574;49.418;11.038;2023-04-03T06:37:50;4.50;26.80
30865;DHT22;17574;49.418;11.038;2023-04-03T06:40:18;4.60;25.20
30865;DHT22;17574;49.418;11.038;2023-04-03T06:42:46;4.60;25.20
30865;DHT22;17574;49.418;11.038;2023-04-03T06:45:12;4.70;25.30
30865;DHT22;17574;49.418;11.038;2023-04-03T06:47:39;4.70;25.20
30865;DHT22;17574;49.418;11.038;2023-04-03T06:50:06;4.70;25.20
30865;DHT22;17574;49.418;11.038;2023-04-03T06:52:33;4.80;23.60
30865;DHT22;17574;49.418;11.038;2023-04-03T06:55:00;4.80;25.30
30865;DHT22;17574;49.418;11.038;2023-04-03T06:57:27;4.80;23.40
30865;DHT22;17574;49.418;11.038;2023-04-03T06:59:53;4.90;22.10
30865;DHT22;17574;49.418;11.038;2023-04-03T07:02:20;4.90;22.50
30865;DHT22;17574;49.418;11.038;2023-04-03T07:04:47;5.00;21.10
30865;DHT22;17574;49.418;11.038;2023-04-03T07:07:14;5.00;19.60
30865;DHT22;17574;49.418;11.038;2023-04-03T07:09:41;5.10;18.60
30865;DHT22;17574;49.418;11.038;2023-04-03T07:12:10;5.20;18.00
30865;DHT22;17574;49.418;11.038;2023-04-03T07:14:37;5.30;16.70
30865;DHT22;17574;49.418;11.038;2023-04-03T07:17:03;5.40;16.80
30865;DHT22;17574;49.418;11.038;2023-04-03T07:19:30;5.40;14.40
30865;DHT22;17574;49.418;11.038;2023-04-03T07:21:57;5.50;14.90
30865;DHT22;17574;49.418;11.038;2023-04-03T07:24:24;5.60;14.40
30865;DHT22;17574;49.418;11.038;2023-04-03T07:26:51;5.70;13.80
30865;DHT22;17574;49.418;11.038;2023-04-03T07:29:18;5.90;12.50
30865;DHT22;17574;49.418;11.038;2023-04-03T07:31:46;6.20;12.40
30865;DHT22;17574;49.418;11.038;2023-04-03T07:34:13;6.60;8.20
30865;DHT22;17574;49.418;11.038;2023-04-03T07:36:40;7.00;5.60
30865;DHT22;17574;49.418;11.038;2023-04-03T07:39:07;7.30;3.50
30865;DHT22;17574;49.418;11.038;2023-04-03T07:41:34;7.40;1.00
30865;DHT22;17574;49.418;11.038;2023-04-03T07:44:01;7.50;1.00
30865;DHT22;17574;49.418;11.038;2023-04-03T07:46:28;7.50;1.00
30865;DHT22;17574;49.418;11.038;2023-04-03T07:48:55;7.40;1.00
30865;DHT22;17574;49.418;11.038;2023-04-03T07:51:23;7.60;1.00
30865;DHT22;17574;49.418;11.038;2023-04-03T07:53:51;7.50;1.00
30865;DHT22;17574;49.418;11.038;2023-04-03T07:56:17;7.40;1.00
30865;DHT22;17574;49.418;11.038;2023-04-03T07:58:44;7.40;1.00
30865;DHT22;17574;49.418;11.038;2023-04-03T08:01:11;7.30;1.00
30865;DHT22;17574;49.418;11.038;2023-04-03T08:03:38;7.40;1.00
30865;DHT22;17574;49.418;11.038;2023-04-03T08:06:06;7.60;1.00
30865;DHT22;17574;49.418;11.038;2023-04-03T08:08:41;7.40;1.00
30865;DHT22;17574;49.418;11.038;2023-04-03T08:11:07;7.20;1.00
30865;DHT22;17574;49.418;11.038;2023-04-03T08:13:34;7.10;1.00
30865;DHT22;17574;49.418;11.038;2023-04-03T08:16:09;7.20;1.00
30865;DHT22;17574;49.418;11.038;2023-04-03T08:18:35;7.30;1.00
30865;DHT22;17574;49.418;11.038;2023-04-03T08:21:05;7.40;1.00
30865;DHT22;17574;49.418;11.038;2023-04-03T08:23:32;7.40;1.00
30865;DHT22;17574;49.418;11.038;2023-04-03T08:25:58;7.50;1.00
30865;DHT22;17574;49.418;11.038;2023-04-03T08:28:25;7.70;1.00
30865;DHT22;17574;49.418;11.038;2023-04-03T08:30:51;8.00;1.00
30865;DHT22;17574;49.418;11.038;2023-04-03T08:33:18;8.40;1.00
30865;DHT22;17574;49.418;11.038;2023-04-03T08:35:45;8.70;1.00
30865;DHT22;17574;49.418;11.038;2023-04-03T08:38:11;9.00;1.00
30865;DHT22;17574;49.418;11.038;2023-04-03T08:40:39;9.50;1.00
30865;DHT22;17574;49.418;11.038;2023-04-03T08:45:48;10.20;1.00
30865;DHT22;17574;49.418;11.038;2023-04-03T08:48:19;10.90;1.00
30865;DHT22;17574;49.418;11.038;2023-04-03T08:50:47;12.40;1.00
30865;DHT22;17574;49.418;11.038;2023-04-03T08:53:16;12.80;1.00
30865;DHT22;17574;49.418;11.038;2023-04-03T08:55:47;14.30;1.00
30865;DHT22;17574;49.418;11.038;2023-04-03T08:58:16;15.10;1.00
30865;DHT22;17574;49.418;11.038;2023-04-03T09:00:47;15.70;1.00
30865;DHT22;17574;49.418;11.038;2023-04-03T09:03:16;14.70;1.00
30865;DHT22;17574;49.418;11.038;2023-04-03T09:05:51;13.50;1.00
30865;DHT22;17574;49.418;11.038;2023-04-03T09:08:23;12.80;1.00
30865;DHT22;17574;49.418;11.038;2023-04-03T09:10:52;11.60;1.00
30865;DHT22;17574;49.418;11.038;2023-04-03T09:14:02;11.10;1.00
30865;DHT22;17574;49.418;11.038;2023-04-03T09:16:16;10.80;1.00
30865;DHT22;17574;49.418;11.038;2023-04-03T09:18:48;10.90;1.00
30865;DHT22;17574;49.418;11.038;2023-04-03T09:21:32;10.20;1.00
30865;DHT22;17574;49.418;11.038;2023-04-03T09:24:01;9.70;1.00
30865;DHT22;17574;49.418;11.038;2023-04-03T09:26:31;9.50;1.00
30865;DHT22;17574;49.418;11.038;2023-04-03T09:29:01;8.70;1.00
30865;DHT22;17574;49.418;11.038;2023-04-03T09:31:39;8.40;5.20
30865;DHT22;17574;49.418;11.038;2023-04-03T09:34:15;11.10;15.40
30865;DHT22;17574;49.418;11.038;2023-04-03T09:36:45;11.40;1.00
30865;DHT22;17574;49.418;11.038;2023-04-03T09:39:14;11.70;1.00
30865;DHT22;17574;49.418;11.038;2023-04-03T09:41:42;12.10;1.00
30865;DHT22;17574;49.418;11.038;2023-04-03T09:44:23;12.20;1.00
30865;DHT22;17574;49.418;11.038;2023-04-03T09:46:50;12.50;1.00
30865;DHT22;17574;49.418;11.038;2023-04-03T09:49:17;12.70;1.00
30865;DHT22;17574;49.418;11.038;2023-04-03T09:51:44;13.20;1.00
30865;DHT22;17574;49.418;11.038;2023-04-03T09:57:13;13.50;1.00
30865;DHT22;17574;49.418;11.038;2023-04-03T09:59:42;12.80;1.00
30865;DHT22;17574;49.418;11.038;2023-04-03T10:04:42;11.90;1.00
30865;DHT22;17574;49.418;11.038;2023-04-03T10:09:58;13.00;1.00
30865;DHT22;17574;49.418;11.038;2023-04-03T10:12:25;13.00;1.00
30865;DHT22;17574;49.418;11.038;2023-04-03T10:14:56;13.40;1.00
30865;DHT22;17574;49.418;11.038;2023-04-03T10:17:36;13.60;1.00
30865;DHT22;17574;49.418;11.038;2023-04-03T10:22:37;13.60;1.00
30865;DHT22;17574;49.418;11.038;2023-04-03T10:25:13;13.50;1.00
30865;DHT22;17574;49.418;11.038;2023-04-03T10:27:44;13.30;1.00
30865;DHT22;17574;49.418;11.038;2023-04-03T10:36:04;11.20;1.00
30865;DHT22;17574;49.418;11.038;2023-04-03T10:44:12;10.30;1.00
30865;DHT22;17574;49.418;11.038;2023-04-03T10:46:42;11.30;1.00
30865;DHT22;17574;49.418;11.038;2023-04-03T10:49:24;11.60;1.00
30865;DHT22;17574;49.418;11.038;2023-04-03T10:51:55;11.30;1.00
30865;DHT22;17574;49.418;11.038;2023-04-03T10:54:25;11.00;1.00
30865;DHT22;17574;49.418;11.038;2023-04-03T10:56:53;11.00;1.00
30865;DHT22;17574;49.418;11.038;2023-04-03T10:59:48;10.80;1.00
30865;DHT22;17574;49.418;11.038;2023-04-03T11:02:29;10.60;1.00
30865;DHT22;17574;49.418;11.038;2023-04-03T11:05:02;10.30;1.00
30865;DHT22;17574;49.418;11.038;2023-04-03T11:07:32;10.20;1.00
30865;DHT22;17574;49.418;11.038;2023-04-03T11:10:21;9.80;1.00
30865;DHT22;17574;49.418;11.038;2023-04-03T11:12:59;9.60;1.00
30865;DHT22;17574;49.418;11.038;2023-04-03T11:15:29;10.60;1.00
30865;DHT22;17574;49.418;11.038;2023-04-03T11:18:08;12.30;1.00
30865;DHT22;17574;49.418;11.038;2023-04-03T11:20:37;13.40;1.00
30865;DHT22;17574;49.418;11.038;2023-04-03T11:23:08;13.40;1.00
30865;DHT22;17574;49.418;11.038;2023-04-03T11:25:42;13.10;1.00
30865;DHT22;17574;49.418;11.038;2023-04-03T11:28:12;12.80;1.00
30865;DHT22;17574;49.418;11.038;2023-04-03T11:36:07;14.10;1.00
30865;DHT22;17574;49.418;11.038;2023-04-03T11:38:51;15.70;1.00
30865;DHT22;17574;49.418;11.038;2023-04-03T11:41:25;16.20;1.00
30865;DHT22;17574;49.418;11.038;2023-04-03T11:46:30;15.90;1.00
30865;DHT22;17574;49.418;11.038;2023-04-03T11:49:49;14.40;1.00
30865;DHT22;17574;49.418;11.038;2023-04-03T11:51:56;13.20;1.00
30865;DHT22;17574;49.418;11.038;2023-04-03T11:54:42;12.50;1.00
30865;DHT22;17574;49.418;11.038;2023-04-03T11:57:22;12.60;1.00
30865;DHT22;17574;49.418;11.038;2023-04-03T11:59:49;13.50;1.00
30865;DHT22;17574;49.418;11.038;2023-04-03T12:02:35;13.40;1.00
30865;DHT22;17574;49.418;11.038;2023-04-03T12:05:29;13.10;1.00
30865;DHT22;17574;49.418;11.038;2023-04-03T12:10:42;14.50;1.00
30865;DHT22;17574;49.418;11.038;2023-04-03T12:13:14;15.70;1.00
30865;DHT22;17574;49.418;11.038;2023-04-03T12:15:49;17.00;1.00
30865;DHT22;17574;49.418;11.038;2023-04-03T12:18:37;17.80;1.00
30865;DHT22;17574;49.418;11.038;2023-04-03T12:21:06;18.10;1.00
30865;DHT22;17574;49.418;11.038;2023-04-03T12:23:33;17.00;1.00
30865;DHT22;17574;49.418;11.038;2023-04-03T12:26:20;15.80;1.00
30865;DHT22;17574;49.418;11.038;2023-04-03T12:28:48;14.60;1.00
30865;DHT22;17574;49.418;11.038;2023-04-03T12:31:16;13.50;1.00
30865;DHT22;17574;49.418;11.038;2023-04-03T12:33:49;14.00;1.00
30865;DHT22;17574;49.418;11.038;2023-04-03T12:36:30;15.20;1.00
30865;DHT22;17574;49.418;11.038;2023-04-03T12:39:05;16.90;1.00
30865;DHT22;17574;49.418;11.038;2023-04-03T12:41:58;18.50;1.00
30865;DHT22;17574;49.418;11.038;2023-04-03T12:45:00;19.50;1.00
30865;DHT22;17574;49.418;11.038;2023-04-03T12:47:22;19.20;1.00
30865;DHT22;17574;49.418;11.038;2023-04-03T12:49:49;17.20;1.00
30865;DHT22;17574;49.418;11.038;2023-04-03T12:52:32;16.50;1.00
30865;DHT22;17574;49.418;11.038;2023-04-03T12:55:00;16.80;1.00
30865;DHT22;17574;49.418;11.038;2023-04-03T12:57:30;17.10;1.00
30865;DHT22;17574;49.418;11.038;2023-04-03T12:59:59;17.60;1.00
30865;DHT22;17574;49.418;11.038;2023-04-03T13:02:27;19.50;1.00
30865;DHT22;17574;49.418;11.038;2023-04-03T13:04:55;19.60;1.00
30865;DHT22;17574;49.418;11.038;2023-04-03T13:07:31;18.10;1.00
30865;DHT22;17574;49.418;11.038;2023-04-03T13:12:33;16.00;1.00
30865;DHT22;17574;49.418;11.038;2023-04-03T13:15:02;16.30;1.00
30865;DHT22;17574;49.418;11.038;2023-04-03T13:17:30;17.10;1.00
30865;DHT22;17574;49.418;11.038;2023-04-03T13:20:09;18.90;1.00
30865;DHT22;17574;49.418;11.038;2023-04-03T13:22:36;19.20;1.00
30865;DHT22;17574;49.418;11.038;2023-04-03T13:25:11;20.20;1.00
30865;DHT22;17574;49.418;11.038;2023-04-03T13:27:39;20.60;1.00
30865;DHT22;17574;49.418;11.038;2023-04-03T13:30:18;20.70;1.00
30865;DHT22;17574;49.418;11.038;2023-04-03T13:32:46;21.20;1.00
30865;DHT22;17574;49.418;11.038;2023-04-03T13:43:36;15.90;1.00
30865;DHT22;17574;49.418;11.038;2023-04-03T13:46:23;15.80;1.00
30865;DHT22;17574;49.418;11.038;2023-04-03T13:49:35;16.30;1.00
30865;DHT22;17574;49.418;11.038;2023-04-03T13:52:51;16.90;1.00
30865;DHT22;17574;49.418;11.038;2023-04-03T14:03:00;16.10;1.00
30865;DHT22;17574;49.418;11.038;2023-04-03T14:05:27;15.10;1.00
30865;DHT22;17574;49.418;11.038;2023-04-03T14:07:54;14.00;1.00
30865;DHT22;17574;49.418;11.038;2023-04-03T14:10:21;13.00;1.00
30865;DHT22;17574;49.418;11.038;2023-04-03T14:12:48;12.60;1.00
30865;DHT22;17574;49.418;11.038;2023-04-03T14:15:22;12.80;1.00
30865;DHT22;17574;49.418;11.038;2023-04-03T14:17:50;13.30;1.00
30865;DHT22;17574;49.418;11.038;2023-04-03T14:20:22;13.90;1.00
30865;DHT22;17574;49.418;11.038;2023-04-03T14:22:49;14.20;1.00
30865;DHT22;17574;49.418;11.038;2023-04-03T14:25:16;14.80;1.00
30865;DHT22;17574;49.418;11.038;2023-04-03T14:27:44;15.10;1.00
30865;DHT22;17574;49.418;11.038;2023-04-03T14:30:28;14.60;1.00
30865;DHT22;17574;49.418;11.038;2023-04-03T14:32:55;13.80;1.00
30865;DHT22;17574;49.418;11.038;2023-04-03T14:35:22;13.30;1.00
30865;DHT22;17574;49.418;11.038;2023-04-03T14:37:49;12.60;1.00
30865;DHT22;17574;49.418;11.038;2023-04-03T14:40:19;12.30;1.00
30865;DHT22;17574;49.418;11.038;2023-04-03T14:42:46;12.30;1.00
30865;DHT22;17574;49.418;11.038;2023-04-03T14:45:15;12.40;1.00
30865;DHT22;17574;49.418;11.038;2023-04-03T14:47:43;12.30;1.00
30865;DHT22;17574;49.418;11.038;2023-04-03T14:50:13;12.10;1.00
30865;DHT22;17574;49.418;11.038;2023-04-03T14:52:41;12.00;1.00
30865;DHT22;17574;49.418;11.038;2023-04-03T14:55:08;12.30;1.00
30865;DHT22;17574;49.418;11.038;2023-04-03T14:57:34;12.30;1.00
30865;DHT22;17574;49.418;11.038;2023-04-03T15:00:01;12.90;1.00
30865;DHT22;17574;49.418;11.038;2023-04-03T15:02:32;12.40;1.00
30865;DHT22;17574;49.418;11.038;2023-04-03T15:05:00;12.20;1.00
30865;DHT22;17574;49.418;11.038;2023-04-03T15:07:30;12.00;1.00
30865;DHT22;17574;49.418;11.038;2023-04-03T15:09:59;12.10;1.00
30865;DHT22;17574;49.418;11.038;2023-04-03T15:12:27;11.80;1.00
30865;DHT22;17574;49.418;11.038;2023-04-03T15:14:54;11.70;1.00
30865;DHT22;17574;49.418;11.038;2023-04-03T15:17:28;11.70;1.00
30865;DHT22;17574;49.418;11.038;2023-04-03T15:19:55;11.90;1.00
30865;DHT22;17574;49.418;11.038;2023-04-03T15:22:22;12.00;1.00
30865;DHT22;17574;49.418;11.038;2023-04-03T15:24:48;12.00;1.00
30865;DHT22;17574;49.418;11.038;2023-04-03T15:27:15;11.70;1.00
30865;DHT22;17574;49.418;11.038;2023-04-03T15:29:42;10.90;1.00
30865;DHT22;17574;49.418;11.038;2023-04-03T15:32:10;10.60;1.00
30865;DHT22;17574;49.418;11.038;2023-04-03T15:34:37;10.30;1.00
30865;DHT22;17574;49.418;11.038;2023-04-03T15:37:04;10.10;1.00
30865;DHT22;17574;49.418;11.038;2023-04-03T15:39:30;9.90;1.00
30865;DHT22;17574;49.418;11.038;2023-04-03T15:41:57;9.70;1.00
30865;DHT22;17574;49.418;11.038;2023-04-03T15:44:31;9.40;1.00
30865;DHT22;17574;49.418;11.038;2023-04-03T15:46:59;9.20;1.00
30865;DHT22;17574;49.418;11.038;2023-04-03T15:49:26;9.10;1.00
30865;DHT22;17574;49.418;11.038;2023-04-03T15:51:53;9.20;1.00
30865;DHT22;17574;49.418;11.038;2023-04-03T15:54:19;9.30;1.00
30865;DHT22;17574;49.418;11.038;2023-04-03T15:56:46;9.40;1.00
30865;DHT22;17574;49.418;11.038;2023-04-03T15:59:13;9.30;1.00
30865;DHT22;17574;49.418;11.038;2023-04-03T16:01:39;9.10;1.00
30865;DHT22;17574;49.418;11.038;2023-04-03T16:04:07;9.00;1.00
30865;DHT22;17574;49.418;11.038;2023-04-03T16:06:34;8.90;1.00
30865;DHT22;17574;49.418;11.038;2023-04-03T16:09:01;8.90;1.00
30865;DHT22;17574;49.418;11.038;2023-04-03T16:11:27;8.80;1.00
30865;DHT22;17574;49.418;11.038;2023-04-03T16:13:54;8.70;1.00
30865;DHT22;17574;49.418;11.038;2023-04-03T16:16:21;8.70;1.00
30865;DHT22;17574;49.418;11.038;2023-04-03T16:18:48;8.80;1.00
30865;DHT22;17574;49.418;11.038;2023-04-03T16:21:15;8.60;1.00
30865;DHT22;17574;49.418;11.038;2023-04-03T16:23:42;8.50;1.00
30865;DHT22;17574;49.418;11.038;2023-04-03T16:26:09;8.50;1.00
30865;DHT22;17574;49.418;11.038;2023-04-03T16:28:36;8.30;1.00
30865;DHT22;17574;49.418;11.038;2023-04-03T16:31:03;8.20;1.00
30865;DHT22;17574;49.418;11.038;2023-04-03T16:33:31;8.30;1.00
30865;DHT22;17574;49.418;11.038;2023-04-03T16:35:58;8.20;1.00
30865;DHT22;17574;49.418;11.038;2023-04-03T16:38:24;8.10;1.00
30865;DHT22;17574;49.418;11.038;2023-04-03T16:40:51;8.10;1.00
30865;DHT22;17574;49.418;11.038;2023-04-03T16:43:22;8.00;1.00